Westerville, Ohio
Current Conditions -  °F | °C
As of 12:53 PM on Friday 24 Oct 2014 (Local Time) from KOSU Reporting Station
Clear Clear  
Wind Chill: 59°   Ceiling: Unl
Heat Index: 59°   Visibility: 10mi
Dew Point: 41°   Wind: 6mph
Humidity: 51%   Direction: 230°SW
Pressure: 30.09"   Gusts: NA
Location:  40.13°N, 82.93°W
Report Text: KOSU 241653Z 23005KT 10SM CLR 15/05 A3009 RMK AO2 SLP189 T01500050
Loading
Personal Weather Stations






























Interactive Weather Map
Tropical Storm Tracking
New forecast layout! Learn more

10-Day Weather Forecast

Advertisements
Track Severe Weather on mobile